Terminal Aerodrome Forecast
Issued by NWS

Home | Current Version | Previous Version | Text Only | Print | Product List | Glossary On
Versions: 1 2 3 4 5 6 7 8 9 10 11 12 13 14 15 16 17 18 19 20 21 22
000
FTPA31 PHFO 201700 RRA
TAFJHM
TAF
PHJH 201746Z 2018/2118 05013G21KT P6SM SCT040 BKN100
     FM202000 05020G30KT P6SM VCSH FEW025 BKN040
     FM210700 05013G21KT P6SM VCSH FEW025 BKN040
      AMD NOT SKED AFT 210400=

USA.gov is the U.S. government's official web portal to all federal, state and local government web resources and services.